Time;durP1;ratioP1;P1;durP2;ratioP2;P2;SDS_P1;SDS_P2;PMS_P1;PMS_P2;Temp;Humidity;BMP_temperature;BMP_pressure;BME280_temperature;BME280_humidity;BME280_pressure;Samples;Min_cycle;Max_cycle;Signal;HPM_P1;HPM_P2
2022/07/24 00:00:04;;;;;;;2.43;1.50;;;;;;;-144.27;100.00;69759.91;2074406;28;20466;-77
2022/07/24 00:01:13;;;;;;;1.43;1.23;;;;;;;-144.27;100.00;69759.91;2074410;28;20251;-77
2022/07/24 00:02:14;;;;;;;1.80;1.03;;;;;;;-144.27;100.00;69759.91;2065453;28;20491;-77
2022/07/24 00:03:15;;;;;;;2.00;1.67;;;;;;;-144.27;100.00;69759.91;2065586;28;20204;-77
2022/07/24 00:04:16;;;;;;;1.20;0.97;;;;;;;-144.27;100.00;69759.91;2065568;28;20436;-77
2022/07/24 00:05:17;;;;;;;2.20;1.20;;;;;;;-144.27;100.00;69759.91;2073529;28;20212;-77
2022/07/24 00:06:20;;;;;;;0.40;0.40;;;;;;;-144.27;100.00;69759.91;2065015;28;20537;-77
2022/07/24 00:07:23;;;;;;;0.93;0.93;;;;;;;-144.27;100.00;69759.91;2065663;28;20354;-77
2022/07/24 00:08:27;;;;;;;3.97;2.23;;;;;;;-144.27;100.00;69759.91;2065336;28;20993;-77
2022/07/24 00:09:27;;;;;;;0.50;0.50;;;;;;;-144.27;100.00;69759.91;2065665;28;20464;-77
2022/07/24 00:10:31;;;;;;;0.97;0.90;;;;;;;-144.27;100.00;69759.91;2074376;28;20439;-77
2022/07/24 00:11:31;;;;;;;0.23;0.23;;;;;;;-144.27;100.00;69759.91;2074178;28;20207;-78
2022/07/24 00:12:34;;;;;;;0.30;0.30;;;;;;;-144.27;100.00;69759.91;2065368;28;20448;-77
2022/07/24 00:13:35;;;;;;;1.83;0.80;;;;;;;-144.27;100.00;69759.91;2065437;28;20225;-78
2022/07/24 00:14:37;;;;;;;1.13;1.13;;;;;;;-144.27;100.00;69759.91;2056950;28;20503;-77
2022/07/24 00:15:38;;;;;;;1.43;1.33;;;;;;;-144.27;100.00;69759.91;2057105;28;20437;-78
2022/07/24 00:16:40;;;;;;;1.20;1.20;;;;;;;-144.27;100.00;69759.91;2057439;28;20425;-78
2022/07/24 00:17:40;;;;;;;1.33;1.23;;;;;;;-144.27;100.00;69759.91;2057385;28;20625;-78
2022/07/24 00:18:42;;;;;;;1.87;1.27;;;;;;;-144.27;100.00;69759.91;2057350;28;20463;-78
2022/07/24 00:19:43;;;;;;;0.40;0.40;;;;;;;-144.27;100.00;69759.91;2065632;28;20185;-77
2022/07/24 00:20:46;;;;;;;0.63;0.63;;;;;;;-144.27;100.00;69759.91;2074014;28;20466;-77
2022/07/24 00:21:46;;;;;;;2.23;1.13;;;;;;;-144.27;100.00;69759.91;2065138;28;20217;-77
2022/07/24 00:22:48;;;;;;;1.67;1.57;;;;;;;-144.27;100.00;69759.91;2057278;28;20441;-77
2022/07/24 00:23:50;;;;;;;1.10;1.10;;;;;;;-144.27;100.00;69759.91;2065488;28;20702;-78
2022/07/24 00:24:52;;;;;;;1.30;1.20;;;;;;;-144.27;100.00;69759.91;2074147;28;20424;-77
2022/07/24 00:25:53;;;;;;;1.57;1.47;;;;;;;-144.27;100.00;69759.91;2074095;28;20787;-77
2022/07/24 00:26:55;;;;;;;0.83;0.83;;;;;;;-144.27;100.00;69759.91;2074127;28;20938;-77
2022/07/24 00:27:56;;;;;;;1.30;1.00;;;;;;;-144.27;100.00;69759.91;2074103;28;20438;-77
2022/07/24 00:28:57;;;;;;;1.17;0.93;;;;;;;-144.27;100.00;69759.91;2065239;28;20954;-77
2022/07/24 00:29:58;;;;;;;2.10;2.00;;;;;;;-144.27;100.00;69759.91;2065646;28;20735;-77
2022/07/24 00:31:00;;;;;;;0.20;0.20;;;;;;;-144.27;100.00;69759.91;2074107;28;20830;-77
2022/07/24 00:32:01;;;;;;;0.47;0.47;;;;;;;-144.27;100.00;69759.91;2065331;28;20271;-77
2022/07/24 00:33:02;;;;;;;2.67;2.17;;;;;;;-144.27;100.00;69759.91;2065509;28;20439;-77
2022/07/24 00:34:07;;;;;;;0.80;0.80;;;;;;;-144.27;100.00;69759.91;2065306;28;20675;-77
2022/07/24 00:35:12;;;;;;;6.17;2.00;;;;;;;-144.27;100.00;69759.91;2057667;28;20447;-77
2022/07/24 00:36:14;;;;;;;0.40;0.40;;;;;;;-144.27;100.00;69759.91;2065504;28;20839;-77
2022/07/24 00:37:14;;;;;;;0.43;0.43;;;;;;;-144.27;100.00;69759.91;2065265;28;21012;-78
2022/07/24 00:38:16;;;;;;;0.67;0.67;;;;;;;-144.27;100.00;69759.91;2057196;28;20826;-77
2022/07/24 00:39:18;;;;;;;1.60;1.50;;;;;;;-144.27;100.00;69759.91;2065360;28;20216;-77
2022/07/24 00:40:20;;;;;;;1.20;1.00;;;;;;;-144.27;100.00;69759.91;2065162;28;21009;-77
2022/07/24 00:41:22;;;;;;;1.40;1.40;;;;;;;-144.27;100.00;69759.91;2065360;28;20440;-77
2022/07/24 00:42:23;;;;;;;1.73;1.57;;;;;;;-144.27;100.00;69759.91;2074009;28;20430;-78
2022/07/24 00:43:24;;;;;;;2.13;1.40;;;;;;;-144.27;100.00;69759.91;2074138;28;20426;-78
2022/07/24 00:44:25;;;;;;;0.57;0.57;;;;;;;-144.27;100.00;69759.91;2065263;28;20205;-78
2022/07/24 00:45:26;;;;;;;0.70;0.70;;;;;;;-144.27;100.00;69759.91;2065283;28;20460;-78
2022/07/24 00:46:27;;;;;;;1.20;1.17;;;;;;;-144.27;100.00;69759.91;2065517;28;20709;-77
2022/07/24 00:47:30;;;;;;;0.53;0.53;;;;;;;-144.27;100.00;69759.91;2057166;28;20456;-78
2022/07/24 00:48:31;;;;;;;1.33;1.23;;;;;;;-144.27;100.00;69759.91;2065504;28;20189;-78
2022/07/24 00:49:33;;;;;;;0.73;0.67;;;;;;;-144.27;100.00;69759.91;2073950;28;20441;-79
2022/07/24 00:50:34;;;;;;;1.47;1.23;;;;;;;-144.27;100.00;69759.91;2074093;28;20184;-78
2022/07/24 00:51:36;;;;;;;1.77;1.60;;;;;;;-144.27;100.00;69759.91;2073592;28;20463;-77
2022/07/24 00:52:36;;;;;;;1.37;0.93;;;;;;;-144.27;100.00;69759.91;2065226;28;20452;-78
2022/07/24 00:53:39;;;;;;;1.13;1.03;;;;;;;-144.27;100.00;69759.91;2065270;28;20430;-78
2022/07/24 00:54:42;;;;;;;2.07;1.90;;;;;;;-144.27;100.00;69759.91;2065181;28;20742;-77
2022/07/24 00:55:45;;;;;;;0.33;0.33;;;;;;;-144.27;100.00;69759.91;2065539;28;20432;-77
2022/07/24 00:56:49;;;;;;;0.63;0.63;;;;;;;-144.27;100.00;69759.91;2065453;28;20862;-77
2022/07/24 00:57:50;;;;;;;1.53;1.43;;;;;;;-144.27;100.00;69759.91;2066913;28;20580;-77
2022/07/24 00:58:51;;;;;;;1.53;1.43;;;;;;;-144.27;100.00;69759.91;2067200;28;20436;-77
2022/07/24 00:59:53;;;;;;;1.87;1.33;;;;;;;-144.27;100.00;69759.91;2075817;28;20435;-78
2022/07/24 01:00:54;;;;;;;1.67;0.90;;;;;;;-144.27;100.00;69759.91;2075551;28;20215;-77
2022/07/24 01:01:57;;;;;;;1.33;1.23;;;;;;;-144.27;100.00;69759.91;2075725;28;20493;-77
2022/07/24 01:02:58;;;;;;;5.17;3.07;;;;;;;-144.27;100.00;69759.91;2075643;28;20427;-77
2022/07/24 01:04:00;;;;;;;1.30;1.20;;;;;;;-144.27;100.00;69759.91;2066816;28;21060;-77
2022/07/24 01:05:01;;;;;;;0.97;0.97;;;;;;;-144.27;100.00;69759.91;2058782;28;20449;-78
2022/07/24 01:06:03;;;;;;;0.93;0.73;;;;;;;-144.27;100.00;69759.91;2066372;28;20440;-77
2022/07/24 01:07:04;;;;;;;2.87;2.63;;;;;;;-144.27;100.00;69759.91;2066807;28;20197;-77
2022/07/24 01:08:06;;;;;;;1.53;1.37;;;;;;;-144.27;100.00;69759.91;2066779;28;20480;-77
2022/07/24 01:09:08;;;;;;;1.30;1.27;;;;;;;-144.27;100.00;69759.91;2067207;28;20440;-76
2022/07/24 01:10:11;;;;;;;2.60;2.40;;;;;;;-144.27;100.00;69759.91;2066816;28;20463;-77
2022/07/24 01:11:13;;;;;;;0.67;0.67;;;;;;;-144.27;100.00;69759.91;2058859;28;20443;-77
2022/07/24 01:12:14;;;;;;;2.00;1.90;;;;;;;-144.27;100.00;69759.91;2067200;28;20432;-76
2022/07/24 01:13:15;;;;;;;1.57;1.47;;;;;;;-144.27;100.00;69759.91;2066716;28;20451;-77
2022/07/24 01:14:16;;;;;;;1.90;1.43;;;;;;;-144.27;100.00;69759.91;2066993;28;20204;-76
2022/07/24 01:15:18;;;;;;;0.47;0.47;;;;;;;-144.27;100.00;69759.91;2075521;28;20447;-76
2022/07/24 01:16:20;;;;;;;1.17;1.17;;;;;;;-144.27;100.00;69759.91;2075348;28;20223;-77
2022/07/24 01:17:22;;;;;;;1.60;1.50;;;;;;;-144.27;100.00;69759.91;2067089;28;20498;-76
2022/07/24 01:18:23;;;;;;;2.13;1.47;;;;;;;-144.27;100.00;69759.91;2066810;28;20436;-78
2022/07/24 01:19:24;;;;;;;1.30;1.20;;;;;;;-144.27;100.00;69759.91;2075477;28;20477;-76
2022/07/24 01:20:25;;;;;;;0.70;0.70;;;;;;;-144.27;100.00;69759.91;2075423;28;20200;-76
2022/07/24 01:21:28;;;;;;;1.23;0.73;;;;;;;-144.27;100.00;69759.91;2075186;28;20946;-77
2022/07/24 01:22:29;;;;;;;2.20;1.73;;;;;;;-144.27;100.00;69759.91;2075588;28;20655;-76
2022/07/24 01:23:34;;;;;;;1.47;1.37;;;;;;;-144.27;100.00;69759.91;2075457;28;20434;-77
2022/07/24 01:24:36;;;;;;;0.97;0.93;;;;;;;-144.27;100.00;69759.91;2075528;28;20485;-77
2022/07/24 01:25:37;;;;;;;6.83;3.73;;;;;;;-144.27;100.00;69759.91;2075457;28;20454;-77
2022/07/24 01:26:38;;;;;;;0.73;0.73;;;;;;;-144.27;100.00;69759.91;2075485;28;20431;-77
2022/07/24 01:27:39;;;;;;;0.30;0.30;;;;;;;-144.27;100.00;69759.91;2075443;28;20437;-76
2022/07/24 01:28:41;;;;;;;1.30;1.27;;;;;;;-144.27;100.00;69759.91;2066625;28;20208;-77
2022/07/24 01:29:44;;;;;;;1.80;1.27;;;;;;;-144.27;100.00;69759.91;2066871;28;20436;-77
2022/07/24 01:30:46;;;;;;;1.30;0.70;;;;;;;-144.27;100.00;69759.91;2067051;28;20540;-77
2022/07/24 01:31:47;;;;;;;3.93;1.93;;;;;;;-144.27;100.00;69759.91;2075522;28;20431;-77
2022/07/24 01:32:49;;;;;;;1.53;1.50;;;;;;;-144.27;100.00;69759.91;2075367;28;20549;-77
2022/07/24 01:33:50;;;;;;;1.80;1.50;;;;;;;-144.27;100.00;69759.91;2066626;28;20484;-77
2022/07/24 01:34:51;;;;;;;1.90;1.57;;;;;;;-144.27;100.00;69759.91;2066589;28;20487;-77
2022/07/24 01:35:52;;;;;;;1.93;1.83;;;;;;;-144.27;100.00;69759.91;2066100;28;20212;-78
2022/07/24 01:36:55;;;;;;;0.67;0.67;;;;;;;-144.27;100.00;69759.91;2066673;28;20430;-77
2022/07/24 01:37:57;;;;;;;1.80;1.43;;;;;;;-144.27;100.00;69759.91;2075427;28;20227;-77
2022/07/24 01:38:58;;;;;;;1.30;1.20;;;;;;;-144.27;100.00;69759.91;2075425;28;20489;-76
2022/07/24 01:39:59;;;;;;;3.10;0.67;;;;;;;-144.27;100.00;69759.91;2066562;28;20550;-77
2022/07/24 01:41:01;;;;;;;3.83;1.83;;;;;;;-144.27;100.00;69759.91;2066539;28;20479;-76
2022/07/24 01:42:01;;;;;;;4.00;2.13;;;;;;;-144.27;100.00;69759.91;2075336;28;20216;-77
2022/07/24 01:43:05;;;;;;;5.27;1.53;;;;;;;-144.27;100.00;69759.91;2075309;28;20430;-76
2022/07/24 01:44:07;;;;;;;0.60;0.60;;;;;;;-144.27;100.00;69759.91;2066524;28;20193;-77
2022/07/24 01:45:13;;;;;;;1.57;1.47;;;;;;;-144.27;100.00;69759.91;2066793;28;20801;-77
2022/07/24 01:46:14;;;;;;;1.13;1.07;;;;;;;-144.27;100.00;69759.91;2066494;28;20471;-77
2022/07/24 01:47:16;;;;;;;5.83;2.60;;;;;;;-144.27;100.00;69759.91;2066591;28;20428;-76
2022/07/24 01:48:16;;;;;;;1.77;1.63;;;;;;;-144.27;100.00;69759.91;2066491;28;20291;-77
2022/07/24 01:49:18;;;;;;;1.70;1.60;;;;;;;-144.27;100.00;69759.91;2066706;28;20431;-78
2022/07/24 01:50:19;;;;;;;1.13;1.13;;;;;;;-144.27;100.00;69759.91;2075268;28;20602;-77
2022/07/24 01:51:21;;;;;;;8.13;2.77;;;;;;;-144.27;100.00;69759.91;2065956;28;20459;-77
2022/07/24 01:52:25;;;;;;;0.73;0.63;;;;;;;-144.27;100.00;69759.91;2066419;28;20857;-77
2022/07/24 01:53:25;;;;;;;2.50;1.07;;;;;;;-144.27;100.00;69759.91;2066662;28;20436;-77
2022/07/24 01:54:27;;;;;;;3.50;2.43;;;;;;;-144.27;100.00;69759.91;2075174;28;20463;-77
2022/07/24 01:55:27;;;;;;;0.73;0.73;;;;;;;-144.27;100.00;69759.91;2075231;28;20681;-77
2022/07/24 01:56:29;;;;;;;4.93;2.13;;;;;;;-144.27;100.00;69759.91;2066566;28;20825;-77
2022/07/24 01:57:30;;;;;;;1.00;0.93;;;;;;;-144.27;100.00;69759.91;2058407;28;20672;-77
2022/07/24 01:58:39;;;;;;;1.30;1.10;;;;;;;-144.27;100.00;69759.91;2058723;28;20512;-77
2022/07/24 01:59:40;;;;;;;3.57;2.23;;;;;;;-144.27;100.00;69759.91;2066466;28;20448;-77
2022/07/24 02:00:41;;;;;;;1.70;0.90;;;;;;;-144.27;100.00;69759.91;2066442;28;20434;-77
2022/07/24 02:01:42;;;;;;;5.13;1.43;;;;;;;-144.27;100.00;69759.91;2074499;28;20299;-77
2022/07/24 02:02:44;;;;;;;2.27;1.70;;;;;;;-144.27;100.00;69759.91;2074568;28;20431;-76
2022/07/24 02:03:46;;;;;;;1.20;1.20;;;;;;;-144.27;100.00;69759.91;2075379;28;20216;-76
2022/07/24 02:04:48;;;;;;;1.00;1.00;;;;;;;-144.27;100.00;69759.91;2066315;28;20510;-77
2022/07/24 02:05:49;;;;;;;1.57;1.53;;;;;;;-144.27;100.00;69759.91;2066413;28;20447;-77
2022/07/24 02:06:50;;;;;;;1.10;0.90;;;;;;;-144.27;100.00;69759.91;2066183;28;20464;-77
2022/07/24 02:07:57;;;;;;;1.40;1.30;;;;;;;-144.27;100.00;69759.91;2065967;28;20197;-77
2022/07/24 02:08:58;;;;;;;0.47;0.47;;;;;;;-144.27;100.00;69759.91;2067085;28;20473;-77
2022/07/24 02:09:59;;;;;;;0.73;0.67;;;;;;;-144.27;100.00;69759.91;2074561;28;20458;-77
2022/07/24 02:11:01;;;;;;;2.10;2.00;;;;;;;-144.27;100.00;69759.91;2075078;28;20423;-77
2022/07/24 02:12:05;;;;;;;2.17;2.00;;;;;;;-144.27;100.00;69759.91;2066401;28;20201;-77
2022/07/24 02:13:08;;;;;;;0.93;0.93;;;;;;;-144.27;100.00;69759.91;2067289;28;20467;-77
2022/07/24 02:14:09;;;;;;;1.13;1.13;;;;;;;-144.27;100.00;69759.91;2075159;28;20764;-77
2022/07/24 02:15:11;;;;;;;1.63;1.53;;;;;;;-144.27;100.00;69759.91;2066246;28;20466;-76
2022/07/24 02:16:11;;;;;;;2.07;1.67;;;;;;;-144.27;100.00;69759.91;2066299;28;20224;-77
2022/07/24 02:17:13;;;;;;;1.73;1.63;;;;;;;-144.27;100.00;69759.91;2066272;28;20440;-77
2022/07/24 02:18:14;;;;;;;0.90;0.90;;;;;;;-144.27;100.00;69759.91;2066378;28;20185;-76
2022/07/24 02:19:17;;;;;;;2.83;1.93;;;;;;;-144.27;100.00;69759.91;2075139;28;20463;-76
2022/07/24 02:20:18;;;;;;;1.03;1.03;;;;;;;-144.27;100.00;69759.91;2066224;28;20200;-77
2022/07/24 02:21:19;;;;;;;0.83;0.83;;;;;;;-144.27;100.00;69759.91;2065964;28;20540;-77
2022/07/24 02:22:20;;;;;;;1.53;1.40;;;;;;;-144.27;100.00;69759.91;2066203;28;20550;-76
2022/07/24 02:23:23;;;;;;;1.37;1.33;;;;;;;-144.27;100.00;69759.91;2066336;28;20451;-77
2022/07/24 02:24:23;;;;;;;5.23;2.43;;;;;;;-144.27;100.00;69759.91;2066455;28;20200;-76
2022/07/24 02:25:25;;;;;;;1.60;1.50;;;;;;;-144.27;100.00;69759.91;2074977;28;20914;-77
2022/07/24 02:26:28;;;;;;;2.40;2.20;;;;;;;-144.27;100.00;69759.91;2066208;28;20204;-77
2022/07/24 02:27:29;;;;;;;3.90;1.90;;;;;;;-144.27;100.00;69759.91;2066758;28;20915;-76
2022/07/24 02:28:30;;;;;;;3.03;2.47;;;;;;;-144.27;100.00;69759.91;2075172;28;20523;-77
2022/07/24 02:29:32;;;;;;;2.37;1.53;;;;;;;-144.27;100.00;69759.91;2066162;28;20459;-77
2022/07/24 02:30:32;;;;;;;1.53;1.47;;;;;;;-144.27;100.00;69759.91;2066373;28;20229;-77
2022/07/24 02:31:34;;;;;;;0.97;0.97;;;;;;;-144.27;100.00;69759.91;2075143;28;20902;-77
2022/07/24 02:32:37;;;;;;;1.60;1.50;;;;;;;-144.27;100.00;69759.91;2074890;28;20188;-77
2022/07/24 02:33:38;;;;;;;1.10;1.00;;;;;;;-144.27;100.00;69759.91;2066080;28;20443;-77
2022/07/24 02:34:39;;;;;;;0.83;0.83;;;;;;;-144.27;100.00;69759.91;2066350;28;20428;-75
2022/07/24 02:35:41;;;;;;;2.73;2.47;;;;;;;-144.27;100.00;69759.91;2074987;28;20427;-76
2022/07/24 02:36:41;;;;;;;2.07;1.97;;;;;;;-144.27;100.00;69759.91;2074498;28;20232;-75
2022/07/24 02:37:45;;;;;;;2.00;1.83;;;;;;;-144.27;100.00;69759.91;2074905;28;20431;-76
2022/07/24 02:38:47;;;;;;;0.80;0.80;;;;;;;-144.27;100.00;69759.91;2066131;28;20208;-76
2022/07/24 02:39:49;;;;;;;1.53;1.50;;;;;;;-144.27;100.00;69759.91;2066248;28;20424;-76
2022/07/24 02:40:51;;;;;;;4.27;1.57;;;;;;;-144.27;100.00;69759.91;2074986;28;20467;-77
2022/07/24 02:41:53;;;;;;;1.20;1.03;;;;;;;-144.27;100.00;69759.91;2074860;28;20957;-76
2022/07/24 02:42:53;;;;;;;2.80;2.13;;;;;;;-144.27;100.00;69759.91;2074850;28;20882;-76
2022/07/24 02:43:55;;;;;;;1.90;1.27;;;;;;;-144.27;100.00;69759.91;2074896;28;20458;-76
2022/07/24 02:44:56;;;;;;;3.10;1.80;;;;;;;-144.27;100.00;69759.91;2066177;28;20323;-76
2022/07/24 02:45:58;;;;;;;6.03;3.37;;;;;;;-144.27;100.00;69759.91;2066393;28;20417;-75
2022/07/24 02:47:00;;;;;;;2.43;2.20;;;;;;;-144.27;100.00;69759.91;2066055;28;20205;-75
2022/07/24 02:48:03;;;;;;;5.23;3.23;;;;;;;-144.27;100.00;69759.91;2066346;28;20428;-75
2022/07/24 02:49:04;;;;;;;1.93;1.43;;;;;;;-144.27;100.00;69759.91;2075073;28;20435;-76
2022/07/24 02:50:06;;;;;;;4.00;1.13;;;;;;;-144.27;100.00;69759.91;2074864;28;20438;-75
2022/07/24 02:51:07;;;;;;;2.90;1.70;;;;;;;-144.27;100.00;69759.91;2065433;28;20189;-77
2022/07/24 02:52:09;;;;;;;0.90;0.90;;;;;;;-144.27;100.00;69759.91;2057996;28;20908;-76
2022/07/24 02:53:09;;;;;;;2.67;2.27;;;;;;;-144.27;100.00;69759.91;2066138;28;20220;-76
2022/07/24 02:54:15;;;;;;;1.40;1.30;;;;;;;-144.27;100.00;69759.91;2066033;28;20447;-77
2022/07/24 02:55:16;;;;;;;1.27;1.17;;;;;;;-144.27;100.00;69759.91;2066047;28;20563;-76
2022/07/24 02:56:17;;;;;;;5.53;3.07;;;;;;;-144.27;100.00;69759.91;2065932;28;20468;-77
2022/07/24 02:57:18;;;;;;;3.40;2.57;;;;;;;-144.27;100.00;69759.91;2066100;28;20189;-77
2022/07/24 02:58:19;;;;;;;3.10;1.53;;;;;;;-144.27;100.00;69759.91;2065962;28;20441;-76
2022/07/24 02:59:20;;;;;;;0.73;0.73;;;;;;;-144.27;100.00;69759.91;2066086;28;20185;-76
2022/07/24 03:00:24;;;;;;;6.23;1.63;;;;;;;-144.27;100.00;69759.91;2074742;28;20431;-76
2022/07/24 03:01:27;;;;;;;0.60;0.60;;;;;;;-144.27;100.00;69759.91;2065782;28;20235;-76
2022/07/24 03:02:29;;;;;;;0.70;0.70;;;;;;;-144.27;100.00;69759.91;2066498;28;20507;-76
2022/07/24 03:03:29;;;;;;;0.90;0.90;;;;;;;-144.27;100.00;69759.91;2065910;28;20456;-76
2022/07/24 03:04:31;;;;;;;1.37;1.33;;;;;;;-144.27;100.00;69759.91;2066020;28;20424;-77
2022/07/24 03:05:32;;;;;;;0.30;0.30;;;;;;;-144.27;100.00;69759.91;2074925;28;20196;-76
2022/07/24 03:06:34;;;;;;;3.27;1.50;;;;;;;-144.27;100.00;69759.91;2065513;28;20896;-76
2022/07/24 03:07:36;;;;;;;57.80;27.60;;;;;;;-144.27;100.00;69759.91;2065542;28;20209;-76
2022/07/24 03:08:40;;;;;;;61.30;34.30;;;;;;;-144.27;100.00;69759.91;2065927;28;20955;-76
2022/07/24 03:09:42;;;;;;;58.40;32.60;;;;;;;-144.27;100.00;69759.91;2074189;28;20910;-76
2022/07/24 03:10:43;;;;;;;55.30;32.53;;;;;;;-144.27;100.00;69759.91;2065875;28;20440;-76
2022/07/24 03:11:45;;;;;;;57.70;33.67;;;;;;;-144.27;100.00;69759.91;2066307;28;20439;-76
2022/07/24 03:12:46;;;;;;;55.97;33.40;;;;;;;-144.27;100.00;69759.91;2074589;28;20421;-76
2022/07/24 03:13:48;;;;;;;54.00;32.77;;;;;;;-144.27;100.00;69759.91;2065802;28;20484;-76
2022/07/24 03:14:51;;;;;;;51.40;31.13;;;;;;;-144.27;100.00;69759.91;2066175;28;20519;-76
2022/07/24 03:15:52;;;;;;;52.83;30.47;;;;;;;-144.27;100.00;69759.91;2065654;28;20460;-76
2022/07/24 03:16:54;;;;;;;47.53;29.07;;;;;;;-144.27;100.00;69759.91;2057771;28;20441;-76
2022/07/24 03:17:56;;;;;;;44.73;28.20;;;;;;;-144.27;100.00;69759.91;2065898;28;20219;-77
2022/07/24 03:18:57;;;;;;;44.33;28.30;;;;;;;-144.27;100.00;69759.91;2065640;28;20444;-76
2022/07/24 03:19:58;;;;;;;44.60;27.53;;;;;;;-144.27;100.00;69759.91;2065356;28;20476;-76
2022/07/24 03:21:02;;;;;;;45.40;28.17;;;;;;;-144.27;100.00;69759.91;2064763;28;20564;-76
2022/07/24 03:22:03;;;;;;;46.83;27.60;;;;;;;-144.27;100.00;69759.91;2066177;28;20667;-77
2022/07/24 03:23:06;;;;;;;48.10;30.50;;;;;;;-144.27;100.00;69759.91;2065669;28;20830;-76
2022/07/24 03:24:07;;;;;;;44.47;29.70;;;;;;;-144.27;100.00;69759.91;2065720;28;20454;-76
2022/07/24 03:25:10;;;;;;;44.50;30.50;;;;;;;-144.27;100.00;69759.91;2065744;28;20483;-76
2022/07/24 03:26:10;;;;;;;46.83;30.10;;;;;;;-144.27;100.00;69759.91;2065718;28;20245;-76
2022/07/24 03:27:12;;;;;;;47.07;31.07;;;;;;;-144.27;100.00;69759.91;2065899;28;20443;-76
2022/07/24 03:28:13;;;;;;;43.93;31.13;;;;;;;-144.27;100.00;69759.91;2073804;28;20589;-76
2022/07/24 03:29:17;;;;;;;40.77;29.20;;;;;;;-144.27;100.00;69759.91;2074018;28;20431;-76
2022/07/24 03:30:21;;;;;;;41.30;29.20;;;;;;;-144.27;100.00;69759.91;2074448;28;20439;-76
2022/07/24 03:31:23;;;;;;;36.70;29.30;;;;;;;-144.27;100.00;69759.91;2065641;28;20467;-76
2022/07/24 03:32:23;;;;;;;38.43;28.73;;;;;;;-144.27;100.00;69759.91;2065777;28;20466;-76
2022/07/24 03:33:25;;;;;;;40.40;28.23;;;;;;;-144.27;100.00;69759.91;2074555;28;20432;-76
2022/07/24 03:34:26;;;;;;;43.47;27.97;;;;;;;-144.27;100.00;69759.91;2074651;28;20280;-76
2022/07/24 03:35:28;;;;;;;43.10;28.93;;;;;;;-144.27;100.00;69759.91;2065632;28;20452;-76
2022/07/24 03:36:29;;;;;;;35.57;26.67;;;;;;;-144.27;100.00;69759.91;2065225;28;20228;-75
2022/07/24 03:37:30;;;;;;;38.80;26.37;;;;;;;-144.27;100.00;69759.91;2057865;28;20453;-76
2022/07/24 03:38:32;;;;;;;35.13;25.67;;;;;;;-144.27;100.00;69759.91;2065811;28;20515;-76
2022/07/24 03:39:32;;;;;;;36.23;24.30;;;;;;;-144.27;100.00;69759.91;2074355;28;20232;-76
2022/07/24 03:40:35;;;;;;;33.53;24.43;;;;;;;-144.27;100.00;69759.91;2065655;28;20447;-76
2022/07/24 03:41:36;;;;;;;32.90;24.83;;;;;;;-144.27;100.00;69759.91;2065927;28;20627;-76
2022/07/24 03:42:38;;;;;;;33.80;23.60;;;;;;;-144.27;100.00;69759.91;2074346;28;20447;-76
2022/07/24 03:43:38;;;;;;;30.07;23.73;;;;;;;-144.27;100.00;69759.91;2065593;28;20288;-76
2022/07/24 03:44:46;;;;;;;33.33;23.83;;;;;;;-144.27;100.00;69759.91;2065695;28;20675;-76
2022/07/24 03:45:47;;;;;;;33.80;25.00;;;;;;;-144.27;100.00;69759.91;2066255;28;20424;-76
2022/07/24 03:46:48;;;;;;;33.67;24.63;;;;;;;-144.27;100.00;69759.91;2074440;28;20426;-75
2022/07/24 03:47:49;;;;;;;33.47;24.93;;;;;;;-144.27;100.00;69759.91;2065619;28;20209;-75
2022/07/24 03:48:51;;;;;;;31.10;24.77;;;;;;;-144.27;100.00;69759.91;2057563;28;20517;-76
2022/07/24 03:49:53;;;;;;;28.00;22.37;;;;;;;-144.27;100.00;69759.91;2065697;28;20687;-76
2022/07/24 03:50:56;;;;;;;31.17;22.97;;;;;;;-144.27;100.00;69759.91;2064915;28;20433;-77
2022/07/24 03:51:56;;;;;;;31.20;22.90;;;;;;;-144.27;100.00;69759.91;2065761;28;20479;-75
2022/07/24 03:52:58;;;;;;;32.43;22.17;;;;;;;-144.27;100.00;69759.91;2074385;28;20493;-75
2022/07/24 03:53:59;;;;;;;29.20;22.17;;;;;;;-144.27;100.00;69759.91;2074317;28;20230;-76
2022/07/24 03:55:00;;;;;;;28.43;21.27;;;;;;;-144.27;100.00;69759.91;2065102;28;20951;-76
2022/07/24 03:56:08;;;;;;;32.83;22.97;;;;;;;-144.27;100.00;69759.91;2065621;28;20219;-76
2022/07/24 03:57:10;;;;;;;30.37;22.07;;;;;;;-144.27;100.00;69759.91;2065545;28;20435;-76
2022/07/24 03:58:10;;;;;;;29.77;21.80;;;;;;;-144.27;100.00;69759.91;2065798;28;20429;-76
2022/07/24 03:59:12;;;;;;;30.03;21.50;;;;;;;-144.27;100.00;69759.91;2074349;28;20442;-75
2022/07/24 04:00:14;;;;;;;29.27;22.60;;;;;;;-144.27;100.00;69759.91;2065499;28;20299;-76
2022/07/24 04:01:15;;;;;;;29.83;22.30;;;;;;;-144.27;100.00;69759.91;2065369;28;20444;-76
2022/07/24 04:02:16;;;;;;;31.87;23.63;;;;;;;-144.27;100.00;69759.91;2065586;28;20927;-76
2022/07/24 04:03:17;;;;;;;33.97;25.03;;;;;;;-144.27;100.00;69759.91;2065508;28;20840;-75
2022/07/24 04:04:18;;;;;;;35.27;24.63;;;;;;;-144.27;100.00;69759.91;2065564;28;20690;-75
2022/07/24 04:05:20;;;;;;;30.40;23.90;;;;;;;-144.27;100.00;69759.91;2074266;28;20780;-76
2022/07/24 04:06:21;;;;;;;32.03;23.87;;;;;;;-144.27;100.00;69759.91;2065055;28;20221;-75
2022/07/24 04:07:23;;;;;;;31.33;24.23;;;;;;;-144.27;100.00;69759.91;2065592;28;20432;-76
2022/07/24 04:08:23;;;;;;;30.60;21.93;;;;;;;-144.27;100.00;69759.91;2065454;28;20232;-75
2022/07/24 04:09:27;;;;;;;30.23;22.83;;;;;;;-144.27;100.00;69759.91;2065860;28;20436;-75
2022/07/24 04:10:28;;;;;;;27.37;21.73;;;;;;;-144.27;100.00;69759.91;2074195;28;20227;-76
2022/07/24 04:11:35;;;;;;;29.27;22.60;;;;;;;-144.27;100.00;69759.91;2074243;28;20423;-76
2022/07/24 04:12:36;;;;;;;31.83;23.30;;;;;;;-144.27;100.00;69759.91;2074349;28;20577;-75
2022/07/24 04:13:38;;;;;;;31.60;24.20;;;;;;;-144.27;100.00;69759.91;2065467;28;20463;-75
2022/07/24 04:14:40;;;;;;;32.20;23.30;;;;;;;-144.27;100.00;69759.91;2065308;28;20228;-76
2022/07/24 04:15:40;;;;;;;30.63;23.50;;;;;;;-144.27;100.00;69759.91;2065332;28;20432;-76
2022/07/24 04:16:44;;;;;;;31.10;24.37;;;;;;;-144.27;100.00;69759.91;2074237;28;20404;-76
2022/07/24 04:17:46;;;;;;;31.60;24.47;;;;;;;-144.27;100.00;69759.91;2065359;28;20206;-76
2022/07/24 04:18:48;;;;;;;33.40;25.33;;;;;;;-144.27;100.00;69759.91;2065369;28;20436;-76
2022/07/24 04:19:49;;;;;;;35.87;25.57;;;;;;;-144.27;100.00;69759.91;2065447;28;20780;-76
2022/07/24 04:20:51;;;;;;;35.87;25.33;;;;;;;-144.27;100.00;69759.91;2065428;28;20487;-75
2022/07/24 04:21:51;;;;;;;31.33;25.40;;;;;;;-144.27;100.00;69759.91;2064977;28;20252;-76
2022/07/24 04:22:53;;;;;;;35.63;26.07;;;;;;;-144.27;100.00;69759.91;2065475;28;20427;-75
2022/07/24 04:23:53;;;;;;;34.50;25.20;;;;;;;-144.27;100.00;69759.91;2074117;28;20662;-76
2022/07/24 04:24:57;;;;;;;32.73;24.77;;;;;;;-144.27;100.00;69759.91;2065526;28;20831;-76
2022/07/24 04:25:59;;;;;;;31.83;24.10;;;;;;;-144.27;100.00;69759.91;2065853;28;20311;-75
2022/07/24 04:27:02;;;;;;;32.97;23.83;;;;;;;-144.27;100.00;69759.91;2074441;28;20446;-75
2022/07/24 04:28:04;;;;;;;32.60;23.63;;;;;;;-144.27;100.00;69759.91;2074178;28;20894;-76
2022/07/24 04:29:05;;;;;;;34.70;24.87;;;;;;;-144.27;100.00;69759.91;2074064;28;20523;-75
2022/07/24 04:30:07;;;;;;;33.50;23.30;;;;;;;-144.27;100.00;69759.91;2074044;28;20435;-76
2022/07/24 04:31:09;;;;;;;28.20;23.10;;;;;;;-144.27;100.00;69759.91;2074013;28;20428;-76
2022/07/24 04:32:09;;;;;;;29.80;22.40;;;;;;;-144.27;100.00;69759.91;2074289;28;20478;-76
2022/07/24 04:33:11;;;;;;;29.67;23.10;;;;;;;-144.27;100.00;69759.91;2065308;28;20443;-75
2022/07/24 04:34:12;;;;;;;33.30;23.53;;;;;;;-144.27;100.00;69759.91;2065510;28;20193;-76
2022/07/24 04:35:13;;;;;;;27.40;20.67;;;;;;;-144.27;100.00;69759.91;2065260;28;20432;-76
2022/07/24 04:36:16;;;;;;;30.17;21.77;;;;;;;-144.27;100.00;69759.91;2064892;28;20236;-75
2022/07/24 04:37:19;;;;;;;26.73;20.47;;;;;;;-144.27;100.00;69759.91;2073947;28;20442;-76
2022/07/24 04:38:20;;;;;;;26.33;20.67;;;;;;;-144.27;100.00;69759.91;2065228;28;20519;-76